CheckWX is a tool to help pilots better visualize weather data.  It is not intended as a substitute for an official pre-flight weather briefing.

22:04:18 UTC

KTRK TAF
Truckee-Tahoe Airport
Truckee, California, USA
KTRK 191732Z 1918/2018 24011G20KT P6SM SCT060 BKN120 TEMPO 1918/1921 24005KT BKN040 FM192100 27018G28KT P6SM FEW060 BKN150 FM200200 22007KT P6SM FEW050 BKN180 FM200600 VRB03KT P6SM SCT180

Oct-19@
18:00 UTC

Oct-19 @ 18:00 UTC

Oct-19@
21:00 UTC

Oct-19 @ 21:00 UTC

KTRK 191732Z 1918/2018 24011G20KT P6SM SCT060 BKN120

Expired

Wind
  • 240° at 11 KTS
  • {Gusting to 20 KTS
Cloud Levels
  • Scattered at 6,000' AGL
  • Broken at 12,000' AGL

Oct-19@
18:00 UTC

Oct-19 @ 18:00 UTC

Oct-19@
21:00 UTC

Oct-19 @ 21:00 UTC

TEMPO 1918/1921 24005KT BKN040

Expired

Wind
  • 240° at 5 KTS
Cloud Levels
  • Broken at 4,000' AGL

Oct-19@
21:00 UTC

Oct-19 @ 21:00 UTC

Oct-20@
02:00 UTC

Oct-20 @ 02:00 UTC

FM192100 27018G28KT P6SM FEW060 BKN150

From

From Standard forecast or significant change

Wind
  • 270° at 18 KTS
  • {Gusting to 28 KTS
Cloud Levels
  • Few at 6,000' AGL
  • Broken at 15,000' AGL

Oct-20@
02:00 UTC

Oct-20 @ 02:00 UTC

Oct-20@
06:00 UTC

Oct-20 @ 06:00 UTC

FM200200 22007KT P6SM FEW050 BKN180

From

From Standard forecast or significant change

Wind
  • 220° at 7 KTS
Cloud Levels
  • Few at 5,000' AGL
  • Broken at 18,000' AGL

Oct-20@
06:00 UTC

Oct-20 @ 06:00 UTC

Oct-20@
18:00 UTC

Oct-20 @ 18:00 UTC

FM200600 VRB03KT P6SM SCT180

From

From Standard forecast or significant change

Wind
  • Variable at 3 KTS
Cloud Levels
  • Scattered at 18,000' AGL